Dunkirk, Indiana
Current Conditions -  °F | °C
As of 10:53 PM on Monday 22 Dec 2014 (Local Time) from KMIE Reporting Station
Overcast Overcast  
Wind Chill: 41°   Ceiling: 7000
Heat Index: 46°   Visibility: 10mi
Dew Point: 38°   Wind: 10mph
Humidity: 73%   Direction: 150°SSE
Pressure: 29.7"   Gusts: NA
Location:  40.38°N, 85.21°W
Report Text: KMIE 230353Z AUTO 15009KT 10SM FEW033 BKN070 OVC085 08/03 A2970 RMK AO2 SLP059 T00780033
Loading
Personal Weather Stations






























Interactive Weather Map New forecast layout! Learn more

10-Day Weather Forecast

Advertisements
Track Severe Weather on mobile